sensor_id;sensor_type;location;lat;lon;timestamp;pressure;altitude;pressure_sealevel;temperature;humidity
44148;BME280;29810;55.848;37.368;2023-04-09T00:01:11;100096.81;;;6.99;52.41
44148;BME280;29810;55.848;37.368;2023-04-09T00:04:21;100095.97;;;6.99;51.15
44148;BME280;29810;55.848;37.368;2023-04-09T00:07:28;100095.16;;;6.96;51.49
44148;BME280;29810;55.848;37.368;2023-04-09T00:10:37;100099.44;;;6.96;51.98
44148;BME280;29810;55.848;37.368;2023-04-09T00:13:43;100094.25;;;6.96;51.94
44148;BME280;29810;55.848;37.368;2023-04-09T00:16:51;100098.59;;;6.92;52.14
44148;BME280;29810;55.848;37.368;2023-04-09T00:19:57;100097.78;;;6.87;52.71
44148;BME280;29810;55.848;37.368;2023-04-09T00:23:05;100097.78;;;6.87;51.98
44148;BME280;29810;55.848;37.368;2023-04-09T00:26:11;100096.09;;;6.86;52.17
44148;BME280;29810;55.848;37.368;2023-04-09T00:29:18;100096.97;;;6.84;52.42
44148;BME280;29810;55.848;37.368;2023-04-09T00:32:23;100095.22;;;6.84;52.30
44148;BME280;29810;55.848;37.368;2023-04-09T00:35:34;100092.66;;;6.81;52.31
44148;BME280;29810;55.848;37.368;2023-04-09T00:38:37;100100.44;;;6.78;52.30
44148;BME280;29810;55.848;37.368;2023-04-09T00:41:46;100090.97;;;6.75;52.24
44148;BME280;29810;55.848;37.368;2023-04-09T00:44:51;100088.37;;;6.74;52.62
44148;BME280;29810;55.848;37.368;2023-04-09T00:48:02;100098.75;;;6.77;52.58
44148;BME280;29810;55.848;37.368;2023-04-09T00:51:09;100090.91;;;6.83;53.17
44148;BME280;29810;55.848;37.368;2023-04-09T00:54:17;100096.91;;;6.91;52.47
44148;BME280;29810;55.848;37.368;2023-04-09T00:57:21;100098.56;;;7.00;52.55
44148;BME280;29810;55.848;37.368;2023-04-09T01:00:31;100094.16;;;7.07;52.12
44148;BME280;29810;55.848;37.368;2023-04-09T01:03:38;100092.44;;;7.09;52.20
44148;BME280;29810;55.848;37.368;2023-04-09T01:10:39;100090.66;;;7.14;51.72
44148;BME280;29810;55.848;37.368;2023-04-09T01:13:29;100091.53;;;7.13;52.32
44148;BME280;29810;55.848;37.368;2023-04-09T01:16:35;100088.97;;;7.10;52.54
44148;BME280;29810;55.848;37.368;2023-04-09T01:19:51;100089.00;;;7.08;52.25
44148;BME280;29810;55.848;37.368;2023-04-09T01:29:30;100091.59;;;7.05;52.46
44148;BME280;29810;55.848;37.368;2023-04-09T01:32:37;100096.84;;;7.01;52.76
44148;BME280;29810;55.848;37.368;2023-04-09T01:35:42;100098.56;;;6.99;53.13
44148;BME280;29810;55.848;37.368;2023-04-09T01:38:51;100102.03;;;6.96;53.71
44148;BME280;29810;55.848;37.368;2023-04-09T01:41:57;100097.72;;;6.95;53.26
44148;BME280;29810;55.848;37.368;2023-04-09T01:45:08;100095.16;;;6.92;53.28
44148;BME280;29810;55.848;37.368;2023-04-09T01:48:15;100094.31;;;6.91;53.30
44148;BME280;29810;55.848;37.368;2023-04-09T01:51:24;100101.22;;;6.89;53.14
44148;BME280;29810;55.848;37.368;2023-04-09T01:54:27;100098.66;;;6.88;53.39
44148;BME280;29810;55.848;37.368;2023-04-09T01:57:40;100096.03;;;6.91;53.39
44148;BME280;29810;55.848;37.368;2023-04-09T02:00:46;100098.59;;;6.95;52.94
44148;BME280;29810;55.848;37.368;2023-04-09T02:03:57;100098.53;;;7.02;52.76
44148;BME280;29810;55.848;37.368;2023-04-09T02:07:26;100103.69;;;7.08;52.87
44148;BME280;29810;55.848;37.368;2023-04-09T02:10:38;100103.66;;;7.11;52.99
44148;BME280;29810;55.848;37.368;2023-04-09T02:13:43;100099.31;;;7.16;53.06
44148;BME280;29810;55.848;37.368;2023-04-09T02:17:12;100096.66;;;7.19;53.06
44148;BME280;29810;55.848;37.368;2023-04-09T02:20:19;100103.56;;;7.22;52.78
44148;BME280;29810;55.848;37.368;2023-04-09T02:23:25;100105.28;;;7.21;52.82
44148;BME280;29810;55.848;37.368;2023-04-09T02:26:30;100095.78;;;7.22;52.87
44148;BME280;29810;55.848;37.368;2023-04-09T02:29:38;100096.66;;;7.19;53.54
44148;BME280;29810;55.848;37.368;2023-04-09T02:32:40;100095.81;;;7.17;53.34
44148;BME280;29810;55.848;37.368;2023-04-09T02:35:49;100094.13;;;7.16;53.02
44148;BME280;29810;55.848;37.368;2023-04-09T02:38:55;100093.22;;;7.17;53.29
44148;BME280;29810;55.848;37.368;2023-04-09T02:42:04;100102.75;;;7.17;52.88
44148;BME280;29810;55.848;37.368;2023-04-09T02:45:11;100101.84;;;7.19;53.19
44148;BME280;29810;55.848;37.368;2023-04-09T02:48:21;100101.00;;;7.20;53.20
44148;BME280;29810;55.848;37.368;2023-04-09T02:51:27;100098.34;;;7.23;52.86
44148;BME280;29810;55.848;37.368;2023-04-09T02:54:35;100088.81;;;7.27;53.28
44148;BME280;29810;55.848;37.368;2023-04-09T02:57:40;100093.09;;;7.31;52.96
44148;BME280;29810;55.848;37.368;2023-04-09T03:00:47;100096.53;;;7.35;53.14
44148;BME280;29810;55.848;37.368;2023-04-09T03:03:55;100097.34;;;7.38;54.08
44148;BME280;29810;55.848;37.368;2023-04-09T03:07:06;100097.31;;;7.43;53.53
44148;BME280;29810;55.848;37.368;2023-04-09T03:10:11;100089.47;;;7.46;53.30
44148;BME280;29810;55.848;37.368;2023-04-09T03:13:18;100093.78;;;7.50;52.91
44148;BME280;29810;55.848;37.368;2023-04-09T03:16:23;100105.00;;;7.52;53.14
44148;BME280;29810;55.848;37.368;2023-04-09T03:19:34;100110.16;;;7.55;53.02
44148;BME280;29810;55.848;37.368;2023-04-09T03:22:39;100104.94;;;7.58;52.96
44148;BME280;29810;55.848;37.368;2023-04-09T03:25:48;100098.84;;;7.62;52.79
44148;BME280;29810;55.848;37.368;2023-04-09T03:29:05;100099.69;;;7.66;53.13
44148;BME280;29810;55.848;37.368;2023-04-09T03:32:14;100100.47;;;7.71;53.24
44148;BME280;29810;55.848;37.368;2023-04-09T03:35:17;100101.28;;;7.75;53.40
44148;BME280;29810;55.848;37.368;2023-04-09T03:38:32;100102.09;;;7.83;53.14
44148;BME280;29810;55.848;37.368;2023-04-09T03:41:36;100101.22;;;7.84;53.95
44148;BME280;29810;55.848;37.368;2023-04-09T03:44:45;100097.59;;;7.94;52.94
44148;BME280;29810;55.848;37.368;2023-04-09T03:47:47;100100.94;;;8.06;53.01
44148;BME280;29810;55.848;37.368;2023-04-09T03:50:56;100090.41;;;8.18;52.65
44148;BME280;29810;55.848;37.368;2023-04-09T03:54:01;100095.38;;;8.34;52.44
44148;BME280;29810;55.848;37.368;2023-04-09T03:57:08;100086.56;;;8.44;52.03
44148;BME280;29810;55.848;37.368;2023-04-09T04:00:14;100096.88;;;8.55;52.16
44148;BME280;29810;55.848;37.368;2023-04-09T04:03:24;100101.81;;;8.72;51.83
44148;BME280;29810;55.848;37.368;2023-04-09T04:06:36;100095.44;;;8.90;51.68
44148;BME280;29810;55.848;37.368;2023-04-09T04:09:40;100101.16;;;9.12;51.38
44148;BME280;29810;55.848;37.368;2023-04-09T04:12:50;100092.00;;;9.41;50.91
44148;BME280;29810;55.848;37.368;2023-04-09T04:15:55;100086.00;;;9.83;50.67
44148;BME280;29810;55.848;37.368;2023-04-09T04:19:04;100084.25;;;10.25;49.85
44148;BME280;29810;55.848;37.368;2023-04-09T04:22:10;100075.44;;;10.72;49.16
44148;BME280;29810;55.848;37.368;2023-04-09T04:25:19;100077.84;;;11.14;48.39
44148;BME280;29810;55.848;37.368;2023-04-09T04:28:24;100076.59;;;11.31;48.15
44148;BME280;29810;55.848;37.368;2023-04-09T04:31:34;100070.31;;;11.36;48.10
44148;BME280;29810;55.848;37.368;2023-04-09T04:34:41;100075.19;;;11.50;47.94
44148;BME280;29810;55.848;37.368;2023-04-09T04:37:54;100070.97;;;11.76;47.72
44148;BME280;29810;55.848;37.368;2023-04-09T04:41:01;100070.66;;;11.88;47.37
44148;BME280;29810;55.848;37.368;2023-04-09T04:44:11;100068.44;;;12.06;47.12
44148;BME280;29810;55.848;37.368;2023-04-09T04:47:16;100067.22;;;12.46;46.50
44148;BME280;29810;55.848;37.368;2023-04-09T04:50:25;100066.59;;;12.66;45.99
44148;BME280;29810;55.848;37.368;2023-04-09T04:53:29;100077.56;;;12.51;45.71
44148;BME280;29810;55.848;37.368;2023-04-09T04:56:37;100073.47;;;12.42;46.16
44148;BME280;29810;55.848;37.368;2023-04-09T04:59:43;100079.44;;;12.17;46.69
44148;BME280;29810;55.848;37.368;2023-04-09T05:02:48;100074.81;;;11.97;47.29
44148;BME280;29810;55.848;37.368;2023-04-09T05:05:53;100082.16;;;11.83;47.56
44148;BME280;29810;55.848;37.368;2023-04-09T05:09:03;100069.19;;;11.78;47.47
44148;BME280;29810;55.848;37.368;2023-04-09T05:12:09;100078.34;;;11.93;47.43
44148;BME280;29810;55.848;37.368;2023-04-09T05:15:19;100071.88;;;12.08;46.96
44148;BME280;29810;55.848;37.368;2023-04-09T05:18:27;100077.00;;;12.11;46.77
44148;BME280;29810;55.848;37.368;2023-04-09T05:21:35;100076.19;;;12.09;46.57
44148;BME280;29810;55.848;37.368;2023-04-09T05:24:40;100077.75;;;12.15;46.45
44148;BME280;29810;55.848;37.368;2023-04-09T05:27:51;100089.56;;;12.28;46.33
44148;BME280;29810;55.848;37.368;2023-04-09T05:30:55;100084.75;;;12.44;46.31
44148;BME280;29810;55.848;37.368;2023-04-09T05:34:01;100085.63;;;12.43;45.97
44148;BME280;29810;55.848;37.368;2023-04-09T05:37:09;100085.28;;;12.25;44.93
44148;BME280;29810;55.848;37.368;2023-04-09T05:40:16;100083.66;;;12.21;45.91
44148;BME280;29810;55.848;37.368;2023-04-09T05:43:22;100089.00;;;12.47;46.08
44148;BME280;29810;55.848;37.368;2023-04-09T05:46:32;100097.56;;;13.07;45.20
44148;BME280;29810;55.848;37.368;2023-04-09T05:49:33;100083.78;;;13.54;44.23
44148;BME280;29810;55.848;37.368;2023-04-09T05:52:45;100091.34;;;13.87;43.97
44148;BME280;29810;55.848;37.368;2023-04-09T05:55:52;100086.50;;;14.23;43.62
44148;BME280;29810;55.848;37.368;2023-04-09T05:59:04;100087.91;;;14.54;43.27
44148;BME280;29810;55.848;37.368;2023-04-09T06:02:08;100091.06;;;14.64;42.93
44148;BME280;29810;55.848;37.368;2023-04-09T06:05:16;100085.13;;;14.59;43.04
44148;BME280;29810;55.848;37.368;2023-04-09T06:08:21;100090.38;;;14.59;43.28
44148;BME280;29810;55.848;37.368;2023-04-09T06:11:30;100099.06;;;14.60;43.22
44148;BME280;29810;55.848;37.368;2023-04-09T06:14:34;100093.69;;;14.64;43.18
44148;BME280;29810;55.848;37.368;2023-04-09T06:17:42;100098.63;;;14.72;43.12
44148;BME280;29810;55.848;37.368;2023-04-09T06:20:48;100095.78;;;14.54;43.53
44148;BME280;29810;55.848;37.368;2023-04-09T06:23:57;100100.38;;;14.25;43.56
44148;BME280;29810;55.848;37.368;2023-04-09T06:27:01;100107.69;;;14.17;43.20
44148;BME280;29810;55.848;37.368;2023-04-09T06:30:11;100103.56;;;14.12;43.87
44148;BME280;29810;55.848;37.368;2023-04-09T06:33:16;100111.56;;;14.07;43.40
44148;BME280;29810;55.848;37.368;2023-04-09T06:36:25;100104.63;;;14.30;43.51
44148;BME280;29810;55.848;37.368;2023-04-09T06:39:29;100104.31;;;14.60;43.12
44148;BME280;29810;55.848;37.368;2023-04-09T06:42:40;100100.66;;;14.87;41.74
44148;BME280;29810;55.848;37.368;2023-04-09T06:45:44;100112.03;;;15.09;38.28
44148;BME280;29810;55.848;37.368;2023-04-09T06:48:53;100105.16;;;15.47;41.44
44148;BME280;29810;55.848;37.368;2023-04-09T06:52:00;100105.22;;;16.06;41.14
44148;BME280;29810;55.848;37.368;2023-04-09T06:55:09;100097.69;;;16.55;40.31
44148;BME280;29810;55.848;37.368;2023-04-09T06:58:19;100107.81;;;16.82;40.32
44148;BME280;29810;55.848;37.368;2023-04-09T07:01:29;100099.84;;;17.03;39.44
44148;BME280;29810;55.848;37.368;2023-04-09T07:04:36;100106.19;;;17.16;39.25
44148;BME280;29810;55.848;37.368;2023-04-09T07:07:45;100101.31;;;16.91;39.38
44148;BME280;29810;55.848;37.368;2023-04-09T07:10:51;100109.53;;;16.83;39.83
44148;BME280;29810;55.848;37.368;2023-04-09T07:14:02;100105.19;;;16.82;38.89
44148;BME280;29810;55.848;37.368;2023-04-09T07:17:09;100110.38;;;16.84;39.63
44148;BME280;29810;55.848;37.368;2023-04-09T07:20:19;100100.84;;;16.81;39.40
44148;BME280;29810;55.848;37.368;2023-04-09T07:23:23;100105.47;;;16.59;39.54
44148;BME280;29810;55.848;37.368;2023-04-09T07:26:34;100110.72;;;16.39;38.43
44148;BME280;29810;55.848;37.368;2023-04-09T07:29:43;100111.16;;;16.30;38.39
44148;BME280;29810;55.848;37.368;2023-04-09T07:32:51;100119.56;;;16.19;39.80
44148;BME280;29810;55.848;37.368;2023-04-09T07:35:58;100114.19;;;16.02;39.20
44148;BME280;29810;55.848;37.368;2023-04-09T07:39:08;100117.88;;;15.77;38.65
44148;BME280;29810;55.848;37.368;2023-04-09T07:42:17;100119.09;;;15.49;38.10
44148;BME280;29810;55.848;37.368;2023-04-09T07:45:29;100123.22;;;15.14;40.28
44148;BME280;29810;55.848;37.368;2023-04-09T07:48:35;100124.56;;;15.02;40.33
44148;BME280;29810;55.848;37.368;2023-04-09T07:51:45;100121.13;;;15.00;40.08
44148;BME280;29810;55.848;37.368;2023-04-09T07:54:51;100124.53;;;14.81;40.68
44148;BME280;29810;55.848;37.368;2023-04-09T07:58:00;100116.88;;;14.75;41.08
44148;BME280;29810;55.848;37.368;2023-04-09T08:01:08;100118.22;;;14.85;40.34
44148;BME280;29810;55.848;37.368;2023-04-09T08:04:17;100115.78;;;15.03;40.42
44148;BME280;29810;55.848;37.368;2023-04-09T08:07:24;100108.69;;;15.05;39.44
44148;BME280;29810;55.848;37.368;2023-04-09T08:10:34;100110.66;;;15.20;39.74
44148;BME280;29810;55.848;37.368;2023-04-09T08:13:41;100105.84;;;15.32;39.54
44148;BME280;29810;55.848;37.368;2023-04-09T08:16:52;100113.94;;;15.05;38.24
44148;BME280;29810;55.848;37.368;2023-04-09T08:20:00;100110.84;;;15.16;39.73
44148;BME280;29810;55.848;37.368;2023-04-09T08:23:11;100098.47;;;15.40;39.23
44148;BME280;29810;55.848;37.368;2023-04-09T08:26:18;100093.31;;;15.57;39.00
44148;BME280;29810;55.848;37.368;2023-04-09T08:29:30;100096.41;;;15.67;39.10
44148;BME280;29810;55.848;37.368;2023-04-09T08:32:38;100095.44;;;15.70;38.96
44148;BME280;29810;55.848;37.368;2023-04-09T08:35:47;100099.78;;;15.71;38.42
44148;BME280;29810;55.848;37.368;2023-04-09T08:38:55;100092.16;;;15.65;38.51
44148;BME280;29810;55.848;37.368;2023-04-09T08:42:04;100093.44;;;15.75;38.96
44148;BME280;29810;55.848;37.368;2023-04-09T08:45:10;100094.13;;;15.60;38.45
44148;BME280;29810;55.848;37.368;2023-04-09T08:48:24;100091.63;;;15.56;37.98
44148;BME280;29810;55.848;37.368;2023-04-09T08:51:29;100093.00;;;15.65;38.23
44148;BME280;29810;55.848;37.368;2023-04-09T08:54:37;100072.44;;;15.54;39.27
44148;BME280;29810;55.848;37.368;2023-04-09T08:57:43;100084.00;;;15.71;39.25
44148;BME280;29810;55.848;37.368;2023-04-09T09:00:55;100081.81;;;15.60;37.66
44148;BME280;29810;55.848;37.368;2023-04-09T09:04:02;100074.66;;;15.64;37.84
44148;BME280;29810;55.848;37.368;2023-04-09T09:07:11;100073.19;;;15.77;37.63
44148;BME280;29810;55.848;37.368;2023-04-09T09:10:17;100077.44;;;15.81;37.09
44148;BME280;29810;55.848;37.368;2023-04-09T09:13:27;100072.03;;;15.84;38.44
44148;BME280;29810;55.848;37.368;2023-04-09T09:16:33;100078.44;;;15.77;38.08
44148;BME280;29810;55.848;37.368;2023-04-09T09:19:47;100069.97;;;15.70;38.09
44148;BME280;29810;55.848;37.368;2023-04-09T09:22:54;100072.03;;;15.64;38.71
44148;BME280;29810;55.848;37.368;2023-04-09T09:26:11;100073.16;;;15.58;38.37
44148;BME280;29810;55.848;37.368;2023-04-09T09:29:17;100057.72;;;15.50;37.98
44148;BME280;29810;55.848;37.368;2023-04-09T09:32:27;100065.41;;;15.55;38.39
44148;BME280;29810;55.848;37.368;2023-04-09T09:38:54;100057.56;;;15.95;37.92
44148;BME280;29810;55.848;37.368;2023-04-09T09:42:16;100055.25;;;16.06;37.82
44148;BME280;29810;55.848;37.368;2023-04-09T09:45:28;100061.13;;;16.13;36.27
44148;BME280;29810;55.848;37.368;2023-04-09T09:48:33;100058.38;;;16.33;37.11
44148;BME280;29810;55.848;37.368;2023-04-09T09:51:44;100043.22;;;16.38;37.26
44148;BME280;29810;55.848;37.368;2023-04-09T09:54:51;100052.62;;;16.44;37.08
44148;BME280;29810;55.848;37.368;2023-04-09T09:58:05;100063.34;;;16.59;36.58
44148;BME280;29810;55.848;37.368;2023-04-09T10:01:15;100053.72;;;17.12;35.76
44148;BME280;29810;55.848;37.368;2023-04-09T10:04:27;100059.84;;;17.47;35.12
44148;BME280;29810;55.848;37.368;2023-04-09T10:07:37;100052.91;;;17.96;34.88
44148;BME280;29810;55.848;37.368;2023-04-09T10:10:45;100041.84;;;18.37;34.21
44148;BME280;29810;55.848;37.368;2023-04-09T10:13:55;100043.19;;;18.60;34.03
44148;BME280;29810;55.848;37.368;2023-04-09T10:17:04;100036.06;;;18.14;34.89
44148;BME280;29810;55.848;37.368;2023-04-09T10:20:21;100043.87;;;18.00;35.04
44148;BME280;29810;55.848;37.368;2023-04-09T10:23:39;100042.66;;;17.90;35.21
44148;BME280;29810;55.848;37.368;2023-04-09T10:26:45;100042.50;;;17.59;35.22
44148;BME280;29810;55.848;37.368;2023-04-09T10:29:56;100037.00;;;17.30;35.33
44148;BME280;29810;55.848;37.368;2023-04-09T10:36:17;100042.78;;;17.19;34.85
44148;BME280;29810;55.848;37.368;2023-04-09T10:39:29;100043.09;;;17.31;35.36
44148;BME280;29810;55.848;37.368;2023-04-09T10:42:39;100039.06;;;17.24;34.70
44148;BME280;29810;55.848;37.368;2023-04-09T10:45:49;100036.69;;;17.19;34.63
44148;BME280;29810;55.848;37.368;2023-04-09T10:49:16;100041.25;;;16.98;34.44
44148;BME280;29810;55.848;37.368;2023-04-09T10:52:22;100036.72;;;16.82;34.46
44148;BME280;29810;55.848;37.368;2023-04-09T10:58:41;100039.41;;;16.63;34.34
44148;BME280;29810;55.848;37.368;2023-04-09T11:01:51;100040.97;;;16.67;35.90
44148;BME280;29810;55.848;37.368;2023-04-09T11:08:22;100036.56;;;16.85;34.87
44148;BME280;29810;55.848;37.368;2023-04-09T11:11:29;100033.66;;;17.27;34.27
44148;BME280;29810;55.848;37.368;2023-04-09T11:14:39;100040.03;;;17.56;33.75
44148;BME280;29810;55.848;37.368;2023-04-09T11:17:47;100035.31;;;17.45;34.37
44148;BME280;29810;55.848;37.368;2023-04-09T11:20:59;100030.97;;;17.44;34.16
44148;BME280;29810;55.848;37.368;2023-04-09T11:24:06;100031.38;;;17.36;33.41
44148;BME280;29810;55.848;37.368;2023-04-09T11:27:17;100024.19;;;17.56;33.85
44148;BME280;29810;55.848;37.368;2023-04-09T11:30:24;100025.09;;;17.73;32.97
44148;BME280;29810;55.848;37.368;2023-04-09T11:33:34;100023.47;;;17.70;33.69
44148;BME280;29810;55.848;37.368;2023-04-09T11:36:41;100022.94;;;17.47;33.38
44148;BME280;29810;55.848;37.368;2023-04-09T11:39:53;100028.75;;;17.36;34.10
44148;BME280;29810;55.848;37.368;2023-04-09T11:42:59;100023.87;;;17.29;34.41
44148;BME280;29810;55.848;37.368;2023-04-09T11:46:09;100014.59;;;17.21;34.39
44148;BME280;29810;55.848;37.368;2023-04-09T11:49:19;100018.78;;;16.91;34.27
44148;BME280;29810;55.848;37.368;2023-04-09T11:52:30;100027.28;;;16.78;35.03
44148;BME280;29810;55.848;37.368;2023-04-09T11:55:39;100020.34;;;16.58;34.23
44148;BME280;29810;55.848;37.368;2023-04-09T11:58:51;100030.22;;;16.35;35.02
44148;BME280;29810;55.848;37.368;2023-04-09T12:01:59;100022.84;;;16.25;34.90
44148;BME280;29810;55.848;37.368;2023-04-09T12:05:29;100001.97;;;16.02;35.16
44148;BME280;29810;55.848;37.368;2023-04-09T12:08:34;100017.03;;;15.99;35.31
44148;BME280;29810;55.848;37.368;2023-04-09T12:11:45;100023.00;;;15.83;35.74
44148;BME280;29810;55.848;37.368;2023-04-09T12:14:55;100019.53;;;15.83;35.50
44148;BME280;29810;55.848;37.368;2023-04-09T12:18:06;100013.50;;;15.79;35.45
44148;BME280;29810;55.848;37.368;2023-04-09T12:21:11;100012.72;;;15.77;35.47
44148;BME280;29810;55.848;37.368;2023-04-09T12:24:24;100016.34;;;15.74;34.97
44148;BME280;29810;55.848;37.368;2023-04-09T12:27:31;100011.84;;;15.57;35.21
44148;BME280;29810;55.848;37.368;2023-04-09T12:30:42;100012.84;;;15.55;36.02
44148;BME280;29810;55.848;37.368;2023-04-09T12:33:48;100010.09;;;15.58;35.94
44148;BME280;29810;55.848;37.368;2023-04-09T12:37:00;100013.16;;;15.28;36.09
44148;BME280;29810;55.848;37.368;2023-04-09T12:40:06;100019.31;;;15.06;36.55
44148;BME280;29810;55.848;37.368;2023-04-09T12:43:17;100012.25;;;15.09;36.72
44148;BME280;29810;55.848;37.368;2023-04-09T12:46:26;100006.78;;;15.13;36.79
44148;BME280;29810;55.848;37.368;2023-04-09T12:49:45;100011.78;;;15.19;36.63
44148;BME280;29810;55.848;37.368;2023-04-09T12:52:57;100007.69;;;15.33;36.58
44148;BME280;29810;55.848;37.368;2023-04-09T12:56:07;100009.53;;;15.31;36.42
44148;BME280;29810;55.848;37.368;2023-04-09T12:59:14;100009.41;;;15.34;36.60
44148;BME280;29810;55.848;37.368;2023-04-09T13:02:27;100008.41;;;15.36;36.48
44148;BME280;29810;55.848;37.368;2023-04-09T13:05:34;100000.19;;;15.44;36.54
44148;BME280;29810;55.848;37.368;2023-04-09T13:08:44;100020.22;;;15.47;35.71
44148;BME280;29810;55.848;37.368;2023-04-09T13:11:51;100008.72;;;15.49;36.19
44148;BME280;29810;55.848;37.368;2023-04-09T13:15:01;100011.19;;;15.33;36.10
44148;BME280;29810;55.848;37.368;2023-04-09T13:18:06;100008.50;;;15.14;36.29
44148;BME280;29810;55.848;37.368;2023-04-09T13:21:17;100011.31;;;14.89;36.46
44148;BME280;29810;55.848;37.368;2023-04-09T13:24:24;100008.34;;;14.76;36.84
44148;BME280;29810;55.848;37.368;2023-04-09T13:27:34;100007.91;;;14.66;36.96
44148;BME280;29810;55.848;37.368;2023-04-09T13:30:41;100016.75;;;14.64;37.04
44148;BME280;29810;55.848;37.368;2023-04-09T13:33:54;100011.78;;;14.78;36.90
44148;BME280;29810;55.848;37.368;2023-04-09T13:37:01;100016.37;;;14.94;36.15
44148;BME280;29810;55.848;37.368;2023-04-09T13:40:17;100007.25;;;15.02;35.79
44148;BME280;29810;55.848;37.368;2023-04-09T13:43:27;100009.16;;;14.99;36.07
44148;BME280;29810;55.848;37.368;2023-04-09T13:46:39;100008.09;;;15.23;36.14
44148;BME280;29810;55.848;37.368;2023-04-09T13:49:46;100009.13;;;15.40;35.87
44148;BME280;29810;55.848;37.368;2023-04-09T13:52:57;100011.44;;;15.48;36.17
44148;BME280;29810;55.848;37.368;2023-04-09T13:56:04;100003.91;;;15.59;36.17
44148;BME280;29810;55.848;37.368;2023-04-09T13:59:16;99999.94;;;15.69;36.21
44148;BME280;29810;55.848;37.368;2023-04-09T14:02:21;100000.53;;;15.76;36.43
44148;BME280;29810;55.848;37.368;2023-04-09T14:05:32;99999.09;;;15.69;36.00
44148;BME280;29810;55.848;37.368;2023-04-09T14:08:39;100001.06;;;15.64;36.42
44148;BME280;29810;55.848;37.368;2023-04-09T14:11:51;100003.06;;;15.59;36.78
44148;BME280;29810;55.848;37.368;2023-04-09T14:14:58;100001.62;;;15.51;36.77
44148;BME280;29810;55.848;37.368;2023-04-09T14:18:06;99999.47;;;15.40;36.80
44148;BME280;29810;55.848;37.368;2023-04-09T14:21:12;99994.69;;;15.30;36.89
44148;BME280;29810;55.848;37.368;2023-04-09T14:24:20;99994.97;;;15.23;37.32
44148;BME280;29810;55.848;37.368;2023-04-09T14:27:25;99987.78;;;15.08;36.63
44148;BME280;29810;55.848;37.368;2023-04-09T14:30:38;99991.97;;;15.12;37.20
44148;BME280;29810;55.848;37.368;2023-04-09T14:33:44;99997.25;;;15.11;37.08
44148;BME280;29810;55.848;37.368;2023-04-09T14:36:53;99991.91;;;15.14;37.39
44148;BME280;29810;55.848;37.368;2023-04-09T14:40:00;99986.66;;;15.14;37.38
44148;BME280;29810;55.848;37.368;2023-04-09T14:43:13;99983.94;;;15.15;37.30
44148;BME280;29810;55.848;37.368;2023-04-09T14:46:20;99979.69;;;15.13;37.32
44148;BME280;29810;55.848;37.368;2023-04-09T14:49:30;99985.91;;;15.10;37.42
44148;BME280;29810;55.848;37.368;2023-04-09T14:52:37;99983.53;;;15.04;37.54
44148;BME280;29810;55.848;37.368;2023-04-09T14:55:46;99981.47;;;14.92;37.32
44148;BME280;29810;55.848;37.368;2023-04-09T14:58:51;99979.03;;;14.87;37.45
44148;BME280;29810;55.848;37.368;2023-04-09T15:02:03;99983.56;;;14.83;37.16
44148;BME280;29810;55.848;37.368;2023-04-09T15:05:13;99982.44;;;14.68;36.99
44148;BME280;29810;55.848;37.368;2023-04-09T15:08:22;99983.09;;;14.51;36.94
44148;BME280;29810;55.848;37.368;2023-04-09T15:11:29;99977.09;;;14.48;37.59
44148;BME280;29810;55.848;37.368;2023-04-09T15:14:36;99977.09;;;14.48;37.87
44148;BME280;29810;55.848;37.368;2023-04-09T15:17:43;99978.03;;;14.47;37.85
44148;BME280;29810;55.848;37.368;2023-04-09T15:20:55;99968.41;;;14.47;37.72
44148;BME280;29810;55.848;37.368;2023-04-09T15:24:09;99969.22;;;14.48;37.95
44148;BME280;29810;55.848;37.368;2023-04-09T15:27:18;99969.53;;;14.40;37.81
44148;BME280;29810;55.848;37.368;2023-04-09T15:30:25;99967.19;;;14.34;37.76
44148;BME280;29810;55.848;37.368;2023-04-09T15:33:35;99965.56;;;14.31;37.68
44148;BME280;29810;55.848;37.368;2023-04-09T15:36:40;99969.16;;;14.29;37.62
44148;BME280;29810;55.848;37.368;2023-04-09T15:39:49;99967.56;;;14.24;37.78
44148;BME280;29810;55.848;37.368;2023-04-09T15:42:56;99963.34;;;14.20;38.09
44148;BME280;29810;55.848;37.368;2023-04-09T15:46:08;99962.13;;;14.07;37.93
44148;BME280;29810;55.848;37.368;2023-04-09T15:49:15;99962.63;;;13.95;38.15
44148;BME280;29810;55.848;37.368;2023-04-09T15:52:24;99964.78;;;13.83;38.21
44148;BME280;29810;55.848;37.368;2023-04-09T15:55:31;99962.66;;;13.71;38.47
44148;BME280;29810;55.848;37.368;2023-04-09T15:58:41;99963.03;;;13.60;38.63
44148;BME280;29810;55.848;37.368;2023-04-09T16:01:46;99957.41;;;13.47;38.72
44148;BME280;29810;55.848;37.368;2023-04-09T16:04:58;99962.97;;;13.38;38.77
44148;BME280;29810;55.848;37.368;2023-04-09T16:08:05;99966.88;;;13.26;38.84
44148;BME280;29810;55.848;37.368;2023-04-09T16:11:17;99957.69;;;13.14;39.07
44148;BME280;29810;55.848;37.368;2023-04-09T16:14:25;99961.59;;;13.02;39.15
44148;BME280;29810;55.848;37.368;2023-04-09T16:17:35;99965.50;;;12.90;39.35
44148;BME280;29810;55.848;37.368;2023-04-09T16:20:45;99970.16;;;12.82;39.45
44148;BME280;29810;55.848;37.368;2023-04-09T16:24:02;99966.12;;;12.72;39.62
44148;BME280;29810;55.848;37.368;2023-04-09T16:27:08;99971.56;;;12.66;39.74
44148;BME280;29810;55.848;37.368;2023-04-09T16:30:18;99969.16;;;12.59;39.80
44148;BME280;29810;55.848;37.368;2023-04-09T16:33:23;99975.34;;;12.57;39.84
44148;BME280;29810;55.848;37.368;2023-04-09T16:36:34;99974.53;;;12.55;39.86
44148;BME280;29810;55.848;37.368;2023-04-09T16:39:42;99972.88;;;12.52;39.95